sensor_id;sensor_type;location;lat;lon;timestamp;P1;durP1;ratioP1;P2;durP2;ratioP2
11398;SDS011;5755;48.116;11.608;2023-02-12T00:01:13;22.27;;;14.93;;
11398;SDS011;5755;48.116;11.608;2023-02-12T00:03:41;23.90;;;15.60;;
11398;SDS011;5755;48.116;11.608;2023-02-12T00:06:10;20.53;;;14.90;;
11398;SDS011;5755;48.116;11.608;2023-02-12T00:08:38;19.70;;;14.70;;
11398;SDS011;5755;48.116;11.608;2023-02-12T00:11:06;21.90;;;15.17;;
11398;SDS011;5755;48.116;11.608;2023-02-12T00:13:35;22.80;;;15.13;;
11398;SDS011;5755;48.116;11.608;2023-02-12T00:16:03;20.10;;;14.83;;
11398;SDS011;5755;48.116;11.608;2023-02-12T00:18:30;24.27;;;15.43;;
11398;SDS011;5755;48.116;11.608;2023-02-12T00:20:59;22.50;;;15.30;;
11398;SDS011;5755;48.116;11.608;2023-02-12T00:23:27;22.67;;;15.07;;
11398;SDS011;5755;48.116;11.608;2023-02-12T00:25:55;23.33;;;16.37;;
11398;SDS011;5755;48.116;11.608;2023-02-12T00:28:22;23.53;;;16.03;;
11398;SDS011;5755;48.116;11.608;2023-02-12T00:30:48;26.03;;;16.77;;
11398;SDS011;5755;48.116;11.608;2023-02-12T00:33:15;25.57;;;15.77;;
11398;SDS011;5755;48.116;11.608;2023-02-12T00:35:43;23.53;;;16.17;;
11398;SDS011;5755;48.116;11.608;2023-02-12T00:38:11;23.57;;;15.60;;
11398;SDS011;5755;48.116;11.608;2023-02-12T00:40:38;26.40;;;15.70;;
11398;SDS011;5755;48.116;11.608;2023-02-12T00:43:05;23.20;;;15.70;;
11398;SDS011;5755;48.116;11.608;2023-02-12T00:45:32;24.33;;;16.57;;
11398;SDS011;5755;48.116;11.608;2023-02-12T00:47:59;28.47;;;15.47;;
11398;SDS011;5755;48.116;11.608;2023-02-12T00:50:26;22.87;;;15.47;;
11398;SDS011;5755;48.116;11.608;2023-02-12T00:52:53;25.50;;;16.00;;
11398;SDS011;5755;48.116;11.608;2023-02-12T00:55:21;21.63;;;15.30;;
11398;SDS011;5755;48.116;11.608;2023-02-12T00:57:48;26.27;;;16.67;;
11398;SDS011;5755;48.116;11.608;2023-02-12T01:00:15;27.00;;;15.33;;
11398;SDS011;5755;48.116;11.608;2023-02-12T01:02:42;26.10;;;16.30;;
11398;SDS011;5755;48.116;11.608;2023-02-12T01:05:09;22.40;;;15.57;;
11398;SDS011;5755;48.116;11.608;2023-02-12T01:07:36;24.93;;;16.43;;
11398;SDS011;5755;48.116;11.608;2023-02-12T01:10:05;25.03;;;15.67;;
11398;SDS011;5755;48.116;11.608;2023-02-12T01:12:35;20.80;;;15.23;;
11398;SDS011;5755;48.116;11.608;2023-02-12T01:15:02;22.97;;;14.60;;
11398;SDS011;5755;48.116;11.608;2023-02-12T01:17:29;22.23;;;15.63;;
11398;SDS011;5755;48.116;11.608;2023-02-12T01:19:56;23.07;;;14.90;;
11398;SDS011;5755;48.116;11.608;2023-02-12T01:22:24;24.08;;;15.88;;
11398;SDS011;5755;48.116;11.608;2023-02-12T01:24:51;24.87;;;16.33;;
11398;SDS011;5755;48.116;11.608;2023-02-12T01:27:18;22.80;;;17.07;;
11398;SDS011;5755;48.116;11.608;2023-02-12T01:29:47;25.13;;;17.03;;
11398;SDS011;5755;48.116;11.608;2023-02-12T01:32:14;25.53;;;17.10;;
11398;SDS011;5755;48.116;11.608;2023-02-12T01:34:41;26.03;;;16.50;;
11398;SDS011;5755;48.116;11.608;2023-02-12T01:37:08;22.40;;;15.67;;
11398;SDS011;5755;48.116;11.608;2023-02-12T01:39:35;22.90;;;16.30;;
11398;SDS011;5755;48.116;11.608;2023-02-12T01:42:02;27.93;;;17.33;;
11398;SDS011;5755;48.116;11.608;2023-02-12T01:44:30;26.57;;;18.07;;
11398;SDS011;5755;48.116;11.608;2023-02-12T01:47:01;28.47;;;17.57;;
11398;SDS011;5755;48.116;11.608;2023-02-12T01:49:30;24.30;;;16.70;;
11398;SDS011;5755;48.116;11.608;2023-02-12T01:52:00;23.63;;;16.20;;
11398;SDS011;5755;48.116;11.608;2023-02-12T01:54:30;24.90;;;17.03;;
11398;SDS011;5755;48.116;11.608;2023-02-12T01:57:00;26.43;;;17.60;;
11398;SDS011;5755;48.116;11.608;2023-02-12T01:59:30;25.50;;;17.13;;
11398;SDS011;5755;48.116;11.608;2023-02-12T02:01:57;28.23;;;17.50;;
11398;SDS011;5755;48.116;11.608;2023-02-12T02:04:26;23.60;;;16.77;;
11398;SDS011;5755;48.116;11.608;2023-02-12T02:06:56;23.23;;;16.50;;
11398;SDS011;5755;48.116;11.608;2023-02-12T02:09:25;27.27;;;16.40;;
11398;SDS011;5755;48.116;11.608;2023-02-12T02:11:53;25.60;;;16.97;;
11398;SDS011;5755;48.116;11.608;2023-02-12T02:14:37;23.27;;;15.57;;
11398;SDS011;5755;48.116;11.608;2023-02-12T02:17:12;27.77;;;16.37;;
11398;SDS011;5755;48.116;11.608;2023-02-12T02:20:05;24.67;;;16.13;;
11398;SDS011;5755;48.116;11.608;2023-02-12T02:22:47;26.23;;;15.00;;
11398;SDS011;5755;48.116;11.608;2023-02-12T02:25:34;25.13;;;14.50;;
11398;SDS011;5755;48.116;11.608;2023-02-12T02:28:12;22.53;;;14.60;;
11398;SDS011;5755;48.116;11.608;2023-02-12T02:30:55;21.23;;;14.27;;
11398;SDS011;5755;48.116;11.608;2023-02-12T02:33:28;18.17;;;12.77;;
11398;SDS011;5755;48.116;11.608;2023-02-12T02:36:09;22.07;;;14.53;;
11398;SDS011;5755;48.116;11.608;2023-02-12T02:38:42;20.57;;;13.63;;
11398;SDS011;5755;48.116;11.608;2023-02-12T02:41:17;23.20;;;13.73;;
11398;SDS011;5755;48.116;11.608;2023-02-12T02:43:48;20.03;;;13.97;;
11398;SDS011;5755;48.116;11.608;2023-02-12T02:46:19;21.77;;;14.03;;
11398;SDS011;5755;48.116;11.608;2023-02-12T02:48:52;22.43;;;13.87;;
11398;SDS011;5755;48.116;11.608;2023-02-12T02:51:24;20.60;;;13.87;;
11398;SDS011;5755;48.116;11.608;2023-02-12T02:53:56;21.13;;;13.83;;
11398;SDS011;5755;48.116;11.608;2023-02-12T02:56:28;21.23;;;14.37;;
11398;SDS011;5755;48.116;11.608;2023-02-12T02:58:58;22.07;;;13.80;;
11398;SDS011;5755;48.116;11.608;2023-02-12T03:01:30;20.77;;;13.83;;
11398;SDS011;5755;48.116;11.608;2023-02-12T03:04:02;20.87;;;13.67;;
11398;SDS011;5755;48.116;11.608;2023-02-12T03:06:36;21.17;;;14.37;;
11398;SDS011;5755;48.116;11.608;2023-02-12T03:09:11;20.60;;;13.60;;
11398;SDS011;5755;48.116;11.608;2023-02-12T03:11:41;20.90;;;14.50;;
11398;SDS011;5755;48.116;11.608;2023-02-12T03:14:10;20.40;;;13.27;;
11398;SDS011;5755;48.116;11.608;2023-02-12T03:16:43;20.77;;;14.70;;
11398;SDS011;5755;48.116;11.608;2023-02-12T03:19:14;20.23;;;13.80;;
11398;SDS011;5755;48.116;11.608;2023-02-12T03:21:45;19.23;;;13.57;;
11398;SDS011;5755;48.116;11.608;2023-02-12T03:24:15;19.00;;;14.53;;
11398;SDS011;5755;48.116;11.608;2023-02-12T03:26:48;21.63;;;14.10;;
11398;SDS011;5755;48.116;11.608;2023-02-12T03:29:19;22.03;;;13.93;;
11398;SDS011;5755;48.116;11.608;2023-02-12T03:32:00;19.47;;;13.90;;
11398;SDS011;5755;48.116;11.608;2023-02-12T03:34:37;18.30;;;13.77;;
11398;SDS011;5755;48.116;11.608;2023-02-12T03:37:11;20.43;;;14.37;;
11398;SDS011;5755;48.116;11.608;2023-02-12T03:39:44;20.73;;;14.23;;
11398;SDS011;5755;48.116;11.608;2023-02-12T03:42:20;22.70;;;14.60;;
11398;SDS011;5755;48.116;11.608;2023-02-12T03:44:56;23.57;;;14.33;;
11398;SDS011;5755;48.116;11.608;2023-02-12T03:47:31;24.20;;;15.27;;
11398;SDS011;5755;48.116;11.608;2023-02-12T03:50:06;21.53;;;14.93;;
11398;SDS011;5755;48.116;11.608;2023-02-12T03:52:37;23.37;;;15.13;;
11398;SDS011;5755;48.116;11.608;2023-02-12T03:55:05;21.73;;;14.87;;
11398;SDS011;5755;48.116;11.608;2023-02-12T03:57:36;23.67;;;15.10;;
11398;SDS011;5755;48.116;11.608;2023-02-12T04:00:07;22.77;;;15.33;;
11398;SDS011;5755;48.116;11.608;2023-02-12T04:02:37;19.37;;;13.90;;
11398;SDS011;5755;48.116;11.608;2023-02-12T04:05:05;21.50;;;15.03;;
11398;SDS011;5755;48.116;11.608;2023-02-12T04:07:34;21.23;;;14.80;;
11398;SDS011;5755;48.116;11.608;2023-02-12T04:10:02;23.83;;;15.30;;
11398;SDS011;5755;48.116;11.608;2023-02-12T04:12:32;22.87;;;14.87;;
11398;SDS011;5755;48.116;11.608;2023-02-12T04:15:06;22.17;;;14.83;;
11398;SDS011;5755;48.116;11.608;2023-02-12T04:17:47;23.67;;;14.93;;
11398;SDS011;5755;48.116;11.608;2023-02-12T04:20:20;22.20;;;15.30;;
11398;SDS011;5755;48.116;11.608;2023-02-12T04:22:53;21.70;;;14.87;;
11398;SDS011;5755;48.116;11.608;2023-02-12T04:25:31;22.60;;;15.37;;
11398;SDS011;5755;48.116;11.608;2023-02-12T04:28:09;21.83;;;15.53;;
11398;SDS011;5755;48.116;11.608;2023-02-12T04:30:45;20.37;;;14.33;;
11398;SDS011;5755;48.116;11.608;2023-02-12T04:33:21;23.73;;;16.07;;
11398;SDS011;5755;48.116;11.608;2023-02-12T04:35:51;22.47;;;14.97;;
11398;SDS011;5755;48.116;11.608;2023-02-12T04:38:25;23.13;;;15.53;;
11398;SDS011;5755;48.116;11.608;2023-02-12T04:40:56;20.67;;;14.10;;
11398;SDS011;5755;48.116;11.608;2023-02-12T04:43:27;20.87;;;13.93;;
11398;SDS011;5755;48.116;11.608;2023-02-12T04:45:54;21.57;;;14.63;;
11398;SDS011;5755;48.116;11.608;2023-02-12T04:48:22;22.90;;;14.50;;
11398;SDS011;5755;48.116;11.608;2023-02-12T04:50:49;20.70;;;14.03;;
11398;SDS011;5755;48.116;11.608;2023-02-12T04:53:16;21.00;;;13.53;;
11398;SDS011;5755;48.116;11.608;2023-02-12T04:55:44;19.73;;;14.07;;
11398;SDS011;5755;48.116;11.608;2023-02-12T04:58:12;22.20;;;13.97;;
11398;SDS011;5755;48.116;11.608;2023-02-12T05:00:38;19.70;;;13.80;;
11398;SDS011;5755;48.116;11.608;2023-02-12T05:03:05;23.40;;;14.00;;
11398;SDS011;5755;48.116;11.608;2023-02-12T05:05:34;19.20;;;12.93;;
11398;SDS011;5755;48.116;11.608;2023-02-12T05:08:01;18.53;;;13.60;;
11398;SDS011;5755;48.116;11.608;2023-02-12T05:10:28;23.17;;;14.00;;
11398;SDS011;5755;48.116;11.608;2023-02-12T05:12:55;22.70;;;14.23;;
11398;SDS011;5755;48.116;11.608;2023-02-12T05:15:21;23.00;;;13.87;;
11398;SDS011;5755;48.116;11.608;2023-02-12T05:17:48;20.17;;;13.47;;
11398;SDS011;5755;48.116;11.608;2023-02-12T05:20:15;19.93;;;13.53;;
11398;SDS011;5755;48.116;11.608;2023-02-12T05:22:43;20.23;;;13.13;;
11398;SDS011;5755;48.116;11.608;2023-02-12T05:25:10;21.43;;;14.27;;
11398;SDS011;5755;48.116;11.608;2023-02-12T05:27:37;18.30;;;13.03;;
11398;SDS011;5755;48.116;11.608;2023-02-12T05:30:04;19.83;;;13.63;;
11398;SDS011;5755;48.116;11.608;2023-02-12T05:32:33;19.40;;;13.73;;
11398;SDS011;5755;48.116;11.608;2023-02-12T05:35:00;18.77;;;13.93;;
11398;SDS011;5755;48.116;11.608;2023-02-12T05:37:27;19.43;;;14.10;;
11398;SDS011;5755;48.116;11.608;2023-02-12T05:39:56;19.80;;;13.60;;
11398;SDS011;5755;48.116;11.608;2023-02-12T05:42:23;23.27;;;14.07;;
11398;SDS011;5755;48.116;11.608;2023-02-12T05:44:50;20.07;;;13.83;;
11398;SDS011;5755;48.116;11.608;2023-02-12T05:47:17;22.70;;;14.73;;
11398;SDS011;5755;48.116;11.608;2023-02-12T05:49:44;22.97;;;14.37;;
11398;SDS011;5755;48.116;11.608;2023-02-12T05:52:10;20.10;;;13.87;;
11398;SDS011;5755;48.116;11.608;2023-02-12T05:54:37;21.97;;;14.03;;
11398;SDS011;5755;48.116;11.608;2023-02-12T05:57:06;21.80;;;14.47;;
11398;SDS011;5755;48.116;11.608;2023-02-12T05:59:33;21.13;;;14.07;;
11398;SDS011;5755;48.116;11.608;2023-02-12T06:02:00;22.63;;;14.30;;
11398;SDS011;5755;48.116;11.608;2023-02-12T06:04:27;20.40;;;14.80;;
11398;SDS011;5755;48.116;11.608;2023-02-12T06:06:54;19.93;;;13.77;;
11398;SDS011;5755;48.116;11.608;2023-02-12T06:09:21;21.83;;;14.23;;
11398;SDS011;5755;48.116;11.608;2023-02-12T06:11:49;19.40;;;14.00;;
11398;SDS011;5755;48.116;11.608;2023-02-12T06:14:17;21.90;;;14.63;;
11398;SDS011;5755;48.116;11.608;2023-02-12T06:16:45;24.27;;;15.00;;
11398;SDS011;5755;48.116;11.608;2023-02-12T06:19:13;19.93;;;14.07;;
11398;SDS011;5755;48.116;11.608;2023-02-12T06:21:40;22.23;;;14.50;;
11398;SDS011;5755;48.116;11.608;2023-02-12T06:24:07;22.60;;;13.73;;
11398;SDS011;5755;48.116;11.608;2023-02-12T06:26:34;24.00;;;14.07;;
11398;SDS011;5755;48.116;11.608;2023-02-12T06:29:01;22.87;;;14.97;;
11398;SDS011;5755;48.116;11.608;2023-02-12T06:31:31;22.63;;;13.77;;
11398;SDS011;5755;48.116;11.608;2023-02-12T06:34:00;22.07;;;14.33;;
11398;SDS011;5755;48.116;11.608;2023-02-12T06:36:29;19.70;;;14.27;;
11398;SDS011;5755;48.116;11.608;2023-02-12T06:38:56;22.90;;;13.73;;
11398;SDS011;5755;48.116;11.608;2023-02-12T06:41:23;23.87;;;14.37;;
11398;SDS011;5755;48.116;11.608;2023-02-12T06:43:50;22.90;;;14.33;;
11398;SDS011;5755;48.116;11.608;2023-02-12T06:46:17;20.30;;;13.77;;
11398;SDS011;5755;48.116;11.608;2023-02-12T06:48:45;21.40;;;14.07;;
11398;SDS011;5755;48.116;11.608;2023-02-12T06:51:13;25.97;;;16.17;;
11398;SDS011;5755;48.116;11.608;2023-02-12T06:53:42;22.37;;;15.03;;
11398;SDS011;5755;48.116;11.608;2023-02-12T06:56:10;22.00;;;14.27;;
11398;SDS011;5755;48.116;11.608;2023-02-12T06:58:38;21.67;;;14.13;;
11398;SDS011;5755;48.116;11.608;2023-02-12T07:01:10;22.93;;;14.30;;
11398;SDS011;5755;48.116;11.608;2023-02-12T07:03:39;20.97;;;13.67;;
11398;SDS011;5755;48.116;11.608;2023-02-12T07:06:08;21.13;;;13.73;;
11398;SDS011;5755;48.116;11.608;2023-02-12T07:08:35;20.83;;;14.30;;
11398;SDS011;5755;48.116;11.608;2023-02-12T07:11:02;20.30;;;14.30;;
11398;SDS011;5755;48.116;11.608;2023-02-12T07:13:29;20.83;;;13.43;;
11398;SDS011;5755;48.116;11.608;2023-02-12T07:16:01;18.73;;;13.00;;
11398;SDS011;5755;48.116;11.608;2023-02-12T07:18:29;18.83;;;13.37;;
11398;SDS011;5755;48.116;11.608;2023-02-12T07:20:56;20.83;;;14.30;;
11398;SDS011;5755;48.116;11.608;2023-02-12T07:23:25;21.37;;;14.13;;
11398;SDS011;5755;48.116;11.608;2023-02-12T07:25:55;21.97;;;14.27;;
11398;SDS011;5755;48.116;11.608;2023-02-12T07:28:22;24.67;;;14.27;;
11398;SDS011;5755;48.116;11.608;2023-02-12T07:30:50;25.93;;;15.80;;
11398;SDS011;5755;48.116;11.608;2023-02-12T07:33:17;22.17;;;14.80;;
11398;SDS011;5755;48.116;11.608;2023-02-12T07:35:44;28.03;;;16.87;;
11398;SDS011;5755;48.116;11.608;2023-02-12T07:38:11;25.95;;;16.25;;
11398;SDS011;5755;48.116;11.608;2023-02-12T07:40:40;24.30;;;16.17;;
11398;SDS011;5755;48.116;11.608;2023-02-12T07:43:07;24.27;;;16.57;;
11398;SDS011;5755;48.116;11.608;2023-02-12T07:45:34;25.73;;;17.07;;
11398;SDS011;5755;48.116;11.608;2023-02-12T07:48:01;28.30;;;18.13;;
11398;SDS011;5755;48.116;11.608;2023-02-12T07:50:28;26.63;;;16.57;;
11398;SDS011;5755;48.116;11.608;2023-02-12T07:52:55;27.30;;;17.63;;
11398;SDS011;5755;48.116;11.608;2023-02-12T07:55:22;28.98;;;18.25;;
11398;SDS011;5755;48.116;11.608;2023-02-12T07:57:51;29.10;;;18.33;;
11398;SDS011;5755;48.116;11.608;2023-02-12T08:00:18;25.85;;;17.75;;
11398;SDS011;5755;48.116;11.608;2023-02-12T08:02:50;27.50;;;17.77;;
11398;SDS011;5755;48.116;11.608;2023-02-12T08:05:18;28.45;;;18.00;;
11398;SDS011;5755;48.116;11.608;2023-02-12T08:07:45;28.13;;;17.88;;
11398;SDS011;5755;48.116;11.608;2023-02-12T08:10:15;29.13;;;18.83;;
11398;SDS011;5755;48.116;11.608;2023-02-12T08:12:46;25.52;;;17.77;;
11398;SDS011;5755;48.116;11.608;2023-02-12T08:15:14;32.85;;;19.95;;
11398;SDS011;5755;48.116;11.608;2023-02-12T08:17:41;30.38;;;19.67;;
11398;SDS011;5755;48.116;11.608;2023-02-12T08:20:08;28.80;;;19.25;;
11398;SDS011;5755;48.116;11.608;2023-02-12T08:35:25;38.22;;;19.73;;
11398;SDS011;5755;48.116;11.608;2023-02-12T08:38:11;30.77;;;19.25;;
11398;SDS011;5755;48.116;11.608;2023-02-12T08:40:40;31.65;;;19.48;;
11398;SDS011;5755;48.116;11.608;2023-02-12T08:52:57;31.80;;;19.88;;
11398;SDS011;5755;48.116;11.608;2023-02-12T08:55:47;35.95;;;19.95;;
11398;SDS011;5755;48.116;11.608;2023-02-12T08:58:15;31.30;;;19.45;;
11398;SDS011;5755;48.116;11.608;2023-02-12T09:00:43;27.80;;;19.33;;
11398;SDS011;5755;48.116;11.608;2023-02-12T09:03:09;31.90;;;19.52;;
11398;SDS011;5755;48.116;11.608;2023-02-12T09:05:40;30.77;;;19.52;;
11398;SDS011;5755;48.116;11.608;2023-02-12T09:26:50;28.45;;;17.48;;
11398;SDS011;5755;48.116;11.608;2023-02-12T09:58:32;7.28;;;5.40;;
11398;SDS011;5755;48.116;11.608;2023-02-12T10:01:36;3.70;;;2.50;;
11398;SDS011;5755;48.116;11.608;2023-02-12T10:04:03;5.47;;;2.03;;
11398;SDS011;5755;48.116;11.608;2023-02-12T10:06:32;2.65;;;2.40;;
11398;SDS011;5755;48.116;11.608;2023-02-12T10:20:18;5.50;;;2.90;;
11398;SDS011;5755;48.116;11.608;2023-02-12T10:26:57;4.13;;;2.70;;
11398;SDS011;5755;48.116;11.608;2023-02-12T10:30:05;3.28;;;2.40;;
11398;SDS011;5755;48.116;11.608;2023-02-12T10:33:03;2.25;;;1.90;;
11398;SDS011;5755;48.116;11.608;2023-02-12T10:39:00;2.60;;;2.33;;
11398;SDS011;5755;48.116;11.608;2023-02-12T10:41:46;4.40;;;3.60;;
11398;SDS011;5755;48.116;11.608;2023-02-12T10:44:18;4.28;;;3.20;;
11398;SDS011;5755;48.116;11.608;2023-02-12T10:46:45;4.65;;;3.50;;
11398;SDS011;5755;48.116;11.608;2023-02-12T10:49:12;4.18;;;3.42;;
11398;SDS011;5755;48.116;11.608;2023-02-12T10:51:49;4.53;;;3.90;;
11398;SDS011;5755;48.116;11.608;2023-02-12T10:54:40;5.93;;;4.70;;
11398;SDS011;5755;48.116;11.608;2023-02-12T10:57:23;7.72;;;5.15;;
11398;SDS011;5755;48.116;11.608;2023-02-12T10:59:53;8.48;;;5.97;;
11398;SDS011;5755;48.116;11.608;2023-02-12T11:16:26;7.80;;;5.07;;
11398;SDS011;5755;48.116;11.608;2023-02-12T11:52:58;4.72;;;3.28;;
11398;SDS011;5755;48.116;11.608;2023-02-12T11:55:53;3.95;;;1.90;;
11398;SDS011;5755;48.116;11.608;2023-02-12T11:58:36;3.90;;;2.05;;
11398;SDS011;5755;48.116;11.608;2023-02-12T12:01:18;2.80;;;2.03;;
11398;SDS011;5755;48.116;11.608;2023-02-12T12:07:36;3.55;;;1.90;;
11398;SDS011;5755;48.116;11.608;2023-02-12T12:10:11;4.22;;;2.20;;
11398;SDS011;5755;48.116;11.608;2023-02-12T12:13:10;2.88;;;2.20;;
11398;SDS011;5755;48.116;11.608;2023-02-12T12:16:07;2.67;;;2.10;;
11398;SDS011;5755;48.116;11.608;2023-02-12T12:22:35;4.18;;;2.55;;
11398;SDS011;5755;48.116;11.608;2023-02-12T12:25:45;3.60;;;2.30;;
11398;SDS011;5755;48.116;11.608;2023-02-12T12:28:28;4.30;;;2.15;;
11398;SDS011;5755;48.116;11.608;2023-02-12T12:31:01;4.13;;;1.75;;
11398;SDS011;5755;48.116;11.608;2023-02-12T12:40:02;5.18;;;2.95;;
11398;SDS011;5755;48.116;11.608;2023-02-12T12:43:13;3.50;;;2.38;;
11398;SDS011;5755;48.116;11.608;2023-02-12T12:46:00;5.53;;;2.67;;
11398;SDS011;5755;48.116;11.608;2023-02-12T12:49:03;4.95;;;3.08;;
11398;SDS011;5755;48.116;11.608;2023-02-12T12:52:02;4.53;;;2.85;;
11398;SDS011;5755;48.116;11.608;2023-02-12T12:58:35;2.20;;;2.00;;
11398;SDS011;5755;48.116;11.608;2023-02-12T13:01:48;3.92;;;2.22;;
11398;SDS011;5755;48.116;11.608;2023-02-12T13:08:16;3.13;;;2.45;;
11398;SDS011;5755;48.116;11.608;2023-02-12T13:11:01;6.22;;;4.35;;
11398;SDS011;5755;48.116;11.608;2023-02-12T13:16:45;6.60;;;4.93;;
11398;SDS011;5755;48.116;11.608;2023-02-12T13:23:03;9.90;;;5.00;;
11398;SDS011;5755;48.116;11.608;2023-02-12T13:36:00;5.25;;;4.20;;
11398;SDS011;5755;48.116;11.608;2023-02-12T13:48:40;5.32;;;4.05;;
11398;SDS011;5755;48.116;11.608;2023-02-12T13:51:51;6.88;;;4.25;;
11398;SDS011;5755;48.116;11.608;2023-02-12T13:54:30;7.22;;;5.38;;
11398;SDS011;5755;48.116;11.608;2023-02-12T14:07:25;13.02;;;8.30;;
11398;SDS011;5755;48.116;11.608;2023-02-12T14:10:20;11.82;;;7.95;;
11398;SDS011;5755;48.116;11.608;2023-02-12T14:12:51;10.25;;;7.22;;
11398;SDS011;5755;48.116;11.608;2023-02-12T14:15:25;14.02;;;8.18;;
11398;SDS011;5755;48.116;11.608;2023-02-12T14:18:27;10.95;;;7.72;;
11398;SDS011;5755;48.116;11.608;2023-02-12T14:27:26;11.27;;;7.88;;
11398;SDS011;5755;48.116;11.608;2023-02-12T14:32:57;13.25;;;7.88;;
11398;SDS011;5755;48.116;11.608;2023-02-12T14:35:42;10.30;;;7.53;;
11398;SDS011;5755;48.116;11.608;2023-02-12T14:41:35;10.98;;;6.95;;
11398;SDS011;5755;48.116;11.608;2023-02-12T14:50:13;12.25;;;8.30;;
11398;SDS011;5755;48.116;11.608;2023-02-12T14:52:44;13.88;;;8.63;;
11398;SDS011;5755;48.116;11.608;2023-02-12T14:55:23;13.25;;;8.80;;
11398;SDS011;5755;48.116;11.608;2023-02-12T14:57:55;13.15;;;8.43;;
11398;SDS011;5755;48.116;11.608;2023-02-12T15:00:27;11.35;;;7.07;;
11398;SDS011;5755;48.116;11.608;2023-02-12T15:06:00;10.27;;;6.20;;
11398;SDS011;5755;48.116;11.608;2023-02-12T15:08:37;8.07;;;5.78;;
11398;SDS011;5755;48.116;11.608;2023-02-12T15:11:12;9.23;;;6.35;;
11398;SDS011;5755;48.116;11.608;2023-02-12T15:14:21;8.90;;;6.10;;
11398;SDS011;5755;48.116;11.608;2023-02-12T15:17:14;8.52;;;6.03;;
11398;SDS011;5755;48.116;11.608;2023-02-12T15:22:28;9.45;;;6.30;;
11398;SDS011;5755;48.116;11.608;2023-02-12T15:25:34;11.30;;;7.28;;
11398;SDS011;5755;48.116;11.608;2023-02-12T15:28:03;10.30;;;7.50;;
11398;SDS011;5755;48.116;11.608;2023-02-12T15:30:41;10.10;;;7.25;;
11398;SDS011;5755;48.116;11.608;2023-02-12T15:33:15;10.70;;;7.55;;
11398;SDS011;5755;48.116;11.608;2023-02-12T15:35:48;10.40;;;6.82;;
11398;SDS011;5755;48.116;11.608;2023-02-12T15:38:17;10.90;;;7.18;;
11398;SDS011;5755;48.116;11.608;2023-02-12T15:40:54;13.10;;;7.47;;
11398;SDS011;5755;48.116;11.608;2023-02-12T15:43:25;9.48;;;7.20;;
11398;SDS011;5755;48.116;11.608;2023-02-12T15:45:55;10.55;;;7.32;;
11398;SDS011;5755;48.116;11.608;2023-02-12T15:48:27;11.23;;;7.45;;
11398;SDS011;5755;48.116;11.608;2023-02-12T15:50:56;11.40;;;7.65;;
11398;SDS011;5755;48.116;11.608;2023-02-12T15:53:30;11.85;;;7.95;;
11398;SDS011;5755;48.116;11.608;2023-02-12T15:55:58;11.93;;;8.35;;
11398;SDS011;5755;48.116;11.608;2023-02-12T15:58:28;12.63;;;8.27;;
11398;SDS011;5755;48.116;11.608;2023-02-12T16:01:02;12.38;;;8.73;;
11398;SDS011;5755;48.116;11.608;2023-02-12T16:03:32;11.37;;;7.57;;
11398;SDS011;5755;48.116;11.608;2023-02-12T16:06:02;11.13;;;7.65;;
11398;SDS011;5755;48.116;11.608;2023-02-12T16:11:11;16.65;;;10.35;;
11398;SDS011;5755;48.116;11.608;2023-02-12T16:16:21;13.27;;;8.67;;
11398;SDS011;5755;48.116;11.608;2023-02-12T16:19:17;13.98;;;9.20;;
11398;SDS011;5755;48.116;11.608;2023-02-12T16:21:48;13.57;;;9.45;;
11398;SDS011;5755;48.116;11.608;2023-02-12T16:24:24;16.83;;;10.43;;
11398;SDS011;5755;48.116;11.608;2023-02-12T16:26:54;14.43;;;9.73;;
11398;SDS011;5755;48.116;11.608;2023-02-12T16:29:21;16.40;;;10.48;;
11398;SDS011;5755;48.116;11.608;2023-02-12T16:31:53;14.80;;;10.37;;
11398;SDS011;5755;48.116;11.608;2023-02-12T16:37:02;16.93;;;10.33;;
11398;SDS011;5755;48.116;11.608;2023-02-12T16:42:54;17.27;;;10.87;;
11398;SDS011;5755;48.116;11.608;2023-02-12T16:48:08;18.10;;;10.60;;
11398;SDS011;5755;48.116;11.608;2023-02-12T16:50:45;17.83;;;11.27;;
11398;SDS011;5755;48.116;11.608;2023-02-12T16:53:23;18.00;;;10.60;;
11398;SDS011;5755;48.116;11.608;2023-02-12T16:56:14;17.03;;;11.13;;
11398;SDS011;5755;48.116;11.608;2023-02-12T16:58:43;17.17;;;11.07;;
11398;SDS011;5755;48.116;11.608;2023-02-12T17:01:14;17.47;;;10.57;;
11398;SDS011;5755;48.116;11.608;2023-02-12T17:03:43;17.03;;;11.00;;
11398;SDS011;5755;48.116;11.608;2023-02-12T17:06:11;17.20;;;10.37;;
11398;SDS011;5755;48.116;11.608;2023-02-12T17:08:40;16.97;;;10.90;;
11398;SDS011;5755;48.116;11.608;2023-02-12T17:11:07;17.57;;;10.77;;
11398;SDS011;5755;48.116;11.608;2023-02-12T17:13:34;18.77;;;11.90;;
11398;SDS011;5755;48.116;11.608;2023-02-12T17:16:01;17.73;;;11.37;;
11398;SDS011;5755;48.116;11.608;2023-02-12T17:18:28;20.03;;;11.67;;
11398;SDS011;5755;48.116;11.608;2023-02-12T17:20:58;21.27;;;12.13;;
11398;SDS011;5755;48.116;11.608;2023-02-12T17:23:27;22.40;;;12.80;;
11398;SDS011;5755;48.116;11.608;2023-02-12T17:25:55;23.03;;;13.17;;
11398;SDS011;5755;48.116;11.608;2023-02-12T17:28:22;21.13;;;12.90;;
11398;SDS011;5755;48.116;11.608;2023-02-12T17:30:50;19.47;;;12.40;;
11398;SDS011;5755;48.116;11.608;2023-02-12T17:33:17;22.70;;;13.17;;
11398;SDS011;5755;48.116;11.608;2023-02-12T17:35:46;21.13;;;12.90;;
11398;SDS011;5755;48.116;11.608;2023-02-12T17:38:13;22.67;;;13.67;;
11398;SDS011;5755;48.116;11.608;2023-02-12T17:40:40;21.83;;;13.43;;
11398;SDS011;5755;48.116;11.608;2023-02-12T17:43:08;25.50;;;13.97;;
11398;SDS011;5755;48.116;11.608;2023-02-12T17:45:38;24.87;;;14.33;;
11398;SDS011;5755;48.116;11.608;2023-02-12T17:48:07;24.40;;;14.00;;
11398;SDS011;5755;48.116;11.608;2023-02-12T17:50:35;23.53;;;14.40;;
11398;SDS011;5755;48.116;11.608;2023-02-12T17:53:02;27.27;;;15.53;;
11398;SDS011;5755;48.116;11.608;2023-02-12T17:55:32;26.03;;;15.30;;
11398;SDS011;5755;48.116;11.608;2023-02-12T17:58:19;27.10;;;15.57;;
11398;SDS011;5755;48.116;11.608;2023-02-12T18:00:46;25.67;;;15.10;;
11398;SDS011;5755;48.116;11.608;2023-02-12T18:03:13;27.47;;;15.57;;
11398;SDS011;5755;48.116;11.608;2023-02-12T18:05:40;27.80;;;15.77;;
11398;SDS011;5755;48.116;11.608;2023-02-12T18:08:08;29.87;;;16.50;;
11398;SDS011;5755;48.116;11.608;2023-02-12T18:10:37;30.73;;;17.07;;
11398;SDS011;5755;48.116;11.608;2023-02-12T18:13:05;28.50;;;16.20;;
11398;SDS011;5755;48.116;11.608;2023-02-12T18:15:34;31.47;;;16.63;;
11398;SDS011;5755;48.116;11.608;2023-02-12T18:18:01;28.90;;;16.53;;
11398;SDS011;5755;48.116;11.608;2023-02-12T18:20:29;28.67;;;16.40;;
11398;SDS011;5755;48.116;11.608;2023-02-12T18:22:56;32.20;;;17.67;;
11398;SDS011;5755;48.116;11.608;2023-02-12T18:25:23;29.87;;;16.73;;
11398;SDS011;5755;48.116;11.608;2023-02-12T18:27:50;29.20;;;16.97;;
11398;SDS011;5755;48.116;11.608;2023-02-12T18:30:17;31.00;;;17.10;;
11398;SDS011;5755;48.116;11.608;2023-02-12T18:32:45;30.37;;;17.37;;
11398;SDS011;5755;48.116;11.608;2023-02-12T18:35:13;31.50;;;16.67;;
11398;SDS011;5755;48.116;11.608;2023-02-12T18:37:39;29.10;;;16.80;;
11398;SDS011;5755;48.116;11.608;2023-02-12T18:40:07;31.03;;;17.03;;
11398;SDS011;5755;48.116;11.608;2023-02-12T18:42:34;28.40;;;16.03;;
11398;SDS011;5755;48.116;11.608;2023-02-12T18:45:01;28.33;;;16.40;;
11398;SDS011;5755;48.116;11.608;2023-02-12T18:47:28;29.47;;;16.13;;
11398;SDS011;5755;48.116;11.608;2023-02-12T18:49:57;26.40;;;16.60;;